createdAt,value
2017-12-17T00:00:19.311Z,87.3
2017-12-17T00:00:59.929Z,87.77
2017-12-17T00:01:40.485Z,87.59
2017-12-17T00:02:21.044Z,87.77
2017-12-17T00:03:01.674Z,87.77
2017-12-17T00:03:42.247Z,88.16
2017-12-17T00:04:22.812Z,88.06
2017-12-17T00:05:03.376Z,87.73
2017-12-17T00:05:43.940Z,88.06
2017-12-17T00:06:24.501Z,87.77
2017-12-17T00:07:05.064Z,87.97
2017-12-17T00:07:45.643Z,87.87
2017-12-17T00:08:26.211Z,87.59
2017-12-17T00:09:06.765Z,87.49
2017-12-17T00:09:47.323Z,87.4
2017-12-17T00:10:27.893Z,87.49
2017-12-17T00:11:08.451Z,87.4
2017-12-17T00:11:49.026Z,88.16
2017-12-17T00:12:29.598Z,87.77
2017-12-17T00:13:10.181Z,87.97
2017-12-17T00:13:50.738Z,87.87
2017-12-17T00:14:31.336Z,87.77
2017-12-17T00:15:11.908Z,87.68
2017-12-17T00:15:52.503Z,87.77
2017-12-17T00:16:33.093Z,88.06
2017-12-17T00:17:13.831Z,87.77
2017-12-17T00:17:54.421Z,87.59
2017-12-17T00:18:34.983Z,87.59
2017-12-17T00:19:15.540Z,87.92
2017-12-17T00:19:56.099Z,88.01
2017-12-17T00:20:36.676Z,87.97
2017-12-17T00:21:17.238Z,87.87
2017-12-17T00:21:57.808Z,87.77
2017-12-17T00:22:38.374Z,87.3
2017-12-17T00:23:18.980Z,87.63
2017-12-17T00:23:59.580Z,87.25
2017-12-17T00:24:40.146Z,87.35
2017-12-17T00:25:20.707Z,86.97
2017-12-17T00:26:01.276Z,87.06
2017-12-17T00:26:41.846Z,86.97
2017-12-17T00:27:22.439Z,86.74
2017-12-17T00:28:03.010Z,86.64
2017-12-17T00:28:43.584Z,86.74
2017-12-17T00:29:24.153Z,87.16
2017-12-17T00:30:04.723Z,86.83
2017-12-17T00:30:45.281Z,86.93
2017-12-17T00:31:25.858Z,86.93
2017-12-17T00:32:06.417Z,86.78
2017-12-17T00:32:46.991Z,87.16
2017-12-17T00:33:27.563Z,86.87
2017-12-17T00:34:08.129Z,86.74
2017-12-17T00:34:48.780Z,87.35
2017-12-17T00:35:29.345Z,86.59
2017-12-17T00:36:09.922Z,87.12
2017-12-17T00:36:50.502Z,86.55
2017-12-17T00:37:31.066Z,87.21
2017-12-17T00:38:11.646Z,87.06
2017-12-17T00:38:52.199Z,86.74
2017-12-17T00:39:32.787Z,86.97
2017-12-17T00:40:13.354Z,87.12
2017-12-17T00:40:53.922Z,86.93
2017-12-17T00:41:34.509Z,87.02
2017-12-17T00:42:15.079Z,86.93
2017-12-17T00:42:55.656Z,87.21
2017-12-17T00:43:36.242Z,86.93
2017-12-17T00:44:16.814Z,86.83
2017-12-17T00:44:57.373Z,87.02
2017-12-17T00:45:37.974Z,86.93
2017-12-17T00:46:18.573Z,87.12
2017-12-17T00:46:59.149Z,86.74
2017-12-17T00:47:39.774Z,86.64
2017-12-17T00:48:20.403Z,86.74
2017-12-17T00:49:01.011Z,87.16
2017-12-17T00:49:41.608Z,87.02
2017-12-17T00:50:22.175Z,86.97
2017-12-17T00:51:02.742Z,87.12
2017-12-17T00:51:43.301Z,87.21
2017-12-17T00:52:23.887Z,86.83
2017-12-17T00:53:04.464Z,87.25
2017-12-17T00:53:45.042Z,86.83
2017-12-17T00:54:25.642Z,87.3
2017-12-17T00:55:06.210Z,87.21
2017-12-17T00:55:46.770Z,87.12
2017-12-17T00:56:27.373Z,87.16
2017-12-17T00:57:07.976Z,87.16
2017-12-17T00:57:48.579Z,87.25
2017-12-17T00:58:29.164Z,87.35
2017-12-17T00:59:09.750Z,86.97
2017-12-17T00:59:50.315Z,86.97
2017-12-17T01:00:30.879Z,86.97
2017-12-17T01:01:11.435Z,86.97
2017-12-17T01:01:52.028Z,87.63
2017-12-17T01:02:32.629Z,87.63
2017-12-17T01:03:13.188Z,87.45
2017-12-17T01:03:53.762Z,87.63
2017-12-17T01:04:34.331Z,87.25
2017-12-17T01:05:14.901Z,87.35
2017-12-17T01:05:55.497Z,87.73
2017-12-17T01:06:36.068Z,87.73
2017-12-17T01:07:16.672Z,88.01
2017-12-17T01:07:57.247Z,87.92
2017-12-17T01:08:37.822Z,87.63
2017-12-17T01:09:18.403Z,87.45
2017-12-17T01:09:58.978Z,87.25
2017-12-17T01:10:39.555Z,87.82
2017-12-17T01:11:20.131Z,87.54
2017-12-17T01:12:00.726Z,88.2
2017-12-17T01:12:41.290Z,88.2
2017-12-17T01:13:21.873Z,87.82
2017-12-17T01:14:02.458Z,87.82
2017-12-17T01:14:43.062Z,87.82
2017-12-17T01:15:23.638Z,87.92
2017-12-17T01:16:04.221Z,87.82
2017-12-17T01:16:44.809Z,87.54
2017-12-17T01:17:25.374Z,88.01
2017-12-17T01:18:05.954Z,87.92
2017-12-17T01:18:46.512Z,87.82
2017-12-17T01:19:27.102Z,88.01
2017-12-17T01:20:07.662Z,87.73
2017-12-17T01:20:48.252Z,87.82
2017-12-17T01:21:28.855Z,87.63
2017-12-17T01:22:09.432Z,88.01
2017-12-17T01:22:50.006Z,87.82
2017-12-17T01:23:30.564Z,87.73
2017-12-17T01:24:11.131Z,87.82
2017-12-17T01:24:51.708Z,87.92
2017-12-17T01:25:32.271Z,88.1
2017-12-17T01:26:12.854Z,87.45
2017-12-17T01:26:53.453Z,87.35
2017-12-17T01:27:34.026Z,87.82
2017-12-17T01:28:14.611Z,88.01
2017-12-17T01:28:55.170Z,88.01
2017-12-17T01:29:35.743Z,87.92
2017-12-17T01:30:16.326Z,88.2
2017-12-17T01:30:56.884Z,88.1
2017-12-17T01:31:37.452Z,87.92
2017-12-17T01:32:18.020Z,88.1
2017-12-17T01:32:58.591Z,88.48
2017-12-17T01:33:39.148Z,88.1
2017-12-17T01:34:19.708Z,88.1
2017-12-17T01:35:00.282Z,87.63
2017-12-17T01:35:40.870Z,87.63
2017-12-17T01:36:21.438Z,87.73
2017-12-17T01:37:01.998Z,87.82
2017-12-17T01:37:42.575Z,87.73
2017-12-17T01:38:23.147Z,87.92
2017-12-17T01:39:03.730Z,88.2
2017-12-17T01:39:44.300Z,87.92
2017-12-17T01:40:24.869Z,87.92
2017-12-17T01:41:05.445Z,87.82
2017-12-17T01:41:46.035Z,87.92
2017-12-17T01:42:26.652Z,87.73
2017-12-17T01:43:07.247Z,87.49
2017-12-17T01:43:47.818Z,87.92
2017-12-17T01:44:28.376Z,88.06
2017-12-17T01:45:08.954Z,88.01
2017-12-17T01:45:49.526Z,87.77
2017-12-17T01:46:30.093Z,88.2
2017-12-17T01:47:10.667Z,88.2
2017-12-17T01:47:51.228Z,87.97
2017-12-17T01:48:31.846Z,88.35
2017-12-17T01:49:12.419Z,88.06
2017-12-17T01:49:53.010Z,88.1
2017-12-17T01:50:33.584Z,88.1
2017-12-17T01:51:14.149Z,87.92
2017-12-17T01:51:54.725Z,88.1
2017-12-17T01:52:35.321Z,88.01
2017-12-17T01:53:15.887Z,88.01
2017-12-17T01:53:56.469Z,88.2
2017-12-17T01:54:37.028Z,88.44
2017-12-17T01:55:17.592Z,88.2
2017-12-17T01:55:58.159Z,88.44
2017-12-17T01:56:38.726Z,88.54
2017-12-17T01:57:20.047Z,88.39
2017-12-17T01:58:00.629Z,88.44
2017-12-17T01:58:41.199Z,88.44
2017-12-17T01:59:21.782Z,88.25
2017-12-17T02:00:02.415Z,88.39
2017-12-17T02:00:42.984Z,88.25
2017-12-17T02:01:23.563Z,88.48
2017-12-17T02:02:04.140Z,88.16
2017-12-17T02:02:44.715Z,88.16
2017-12-17T02:03:25.283Z,87.87
2017-12-17T02:04:05.857Z,88.35
2017-12-17T02:04:46.466Z,88.35
2017-12-17T02:05:27.074Z,88.58
2017-12-17T02:06:07.655Z,88.54
2017-12-17T02:06:48.235Z,88.44
2017-12-17T02:07:28.797Z,88.82
2017-12-17T02:08:09.361Z,88.54
2017-12-17T02:08:49.921Z,88.54
2017-12-17T02:09:30.484Z,89.29
2017-12-17T02:10:11.030Z,89.01
2017-12-17T02:10:51.578Z,89.29
2017-12-17T02:11:32.144Z,88.82
2017-12-17T02:12:12.708Z,88.77
2017-12-17T02:12:53.266Z,88.92
2017-12-17T02:13:33.838Z,88.48
2017-12-17T02:14:14.407Z,88.44
2017-12-17T02:14:54.967Z,88.82
2017-12-17T02:15:35.534Z,88.06
2017-12-17T02:16:16.098Z,88.73
2017-12-17T02:16:56.667Z,88.44
2017-12-17T02:17:37.238Z,89.11
2017-12-17T02:18:17.816Z,89.29
2017-12-17T02:18:58.377Z,89.15
2017-12-17T02:19:38.937Z,89.25
2017-12-17T02:20:19.529Z,89.15
2017-12-17T02:21:00.092Z,89.11
2017-12-17T02:21:40.665Z,88.92
2017-12-17T02:22:21.219Z,88.96
2017-12-17T02:23:01.787Z,89.34
2017-12-17T02:23:42.368Z,89.34
2017-12-17T02:24:22.930Z,89.34
2017-12-17T02:25:03.521Z,89.34
2017-12-17T02:25:44.087Z,88.58
2017-12-17T02:26:24.664Z,88.77
2017-12-17T02:27:05.228Z,89.15
2017-12-17T02:27:45.788Z,88.39
2017-12-17T02:28:26.356Z,88.87
2017-12-17T02:29:06.962Z,88.87
2017-12-17T02:29:47.493Z,88.77
2017-12-17T02:30:28.085Z,89.15
2017-12-17T02:31:08.673Z,88.48
2017-12-17T02:31:49.238Z,88.96
2017-12-17T02:32:29.816Z,88.68
2017-12-17T02:33:10.412Z,88.39
2017-12-17T02:33:51.021Z,88.29
2017-12-17T02:34:31.583Z,88.1
2017-12-17T02:35:12.146Z,88.1
2017-12-17T02:35:52.720Z,88.1
2017-12-17T02:36:33.282Z,88.48
2017-12-17T02:37:13.893Z,88.16
2017-12-17T02:37:54.507Z,88.25
2017-12-17T02:38:35.068Z,88.29
2017-12-17T02:39:15.642Z,88.44
2017-12-17T02:39:56.216Z,88.25
2017-12-17T02:40:36.778Z,88.44
2017-12-17T02:41:17.341Z,88.25
2017-12-17T02:41:57.913Z,88.25
2017-12-17T02:42:38.481Z,88.82
2017-12-17T02:43:19.060Z,88.44
2017-12-17T02:43:59.648Z,89.11
2017-12-17T02:44:40.219Z,89.2
2017-12-17T02:45:20.787Z,89.01
2017-12-17T02:46:01.380Z,88.92
2017-12-17T02:46:41.980Z,89.01
2017-12-17T02:47:22.561Z,89.2
2017-12-17T02:48:03.133Z,89.2
2017-12-17T02:48:43.699Z,89.01
2017-12-17T02:49:24.264Z,88.82
2017-12-17T02:50:04.838Z,89.29
2017-12-17T02:50:45.413Z,88.92
2017-12-17T02:51:25.989Z,89.58
2017-12-17T02:52:06.554Z,89.39
2017-12-17T02:52:47.141Z,89.01
2017-12-17T02:53:27.727Z,89.01
2017-12-17T02:54:08.291Z,89.11
2017-12-17T02:54:48.875Z,88.92
2017-12-17T02:55:29.446Z,89.01
2017-12-17T02:56:10.010Z,89.01
2017-12-17T02:56:50.571Z,89.11
2017-12-17T02:57:31.135Z,89.01
2017-12-17T02:58:11.689Z,88.92
2017-12-17T02:58:52.257Z,89.06
2017-12-17T02:59:32.821Z,89.01
2017-12-17T03:00:13.410Z,89.06
2017-12-17T03:00:53.974Z,88.54
2017-12-17T03:01:34.525Z,88.77
2017-12-17T03:02:15.096Z,88.2
2017-12-17T03:02:55.656Z,88.87
2017-12-17T03:03:36.232Z,88.73
2017-12-17T03:04:16.792Z,88.39
2017-12-17T03:04:57.366Z,89.11
2017-12-17T03:05:37.938Z,89.25
2017-12-17T03:06:18.518Z,89.11
2017-12-17T03:06:59.078Z,89.25
2017-12-17T03:07:39.642Z,88.73
2017-12-17T03:08:20.229Z,88.73
2017-12-17T03:09:00.788Z,88.63
2017-12-17T03:09:41.377Z,88.73
2017-12-17T03:10:21.959Z,89.29
2017-12-17T03:11:02.684Z,89.11
2017-12-17T03:11:43.130Z,89.39
2017-12-17T03:12:23.704Z,89.39
2017-12-17T03:13:04.293Z,89.48
2017-12-17T03:13:44.852Z,89.39
2017-12-17T03:14:25.437Z,89.77
2017-12-17T03:15:06.020Z,89.67
2017-12-17T03:15:46.586Z,90.24
2017-12-17T03:16:27.150Z,90.05
2017-12-17T03:17:07.710Z,90.05
2017-12-17T03:17:48.301Z,90.05
2017-12-17T03:18:28.909Z,89.39
2017-12-17T03:19:09.497Z,89.48
2017-12-17T03:19:50.073Z,89.58
2017-12-17T03:20:30.641Z,89.58
2017-12-17T03:21:11.203Z,89.2
2017-12-17T03:21:51.797Z,88.92
2017-12-17T03:22:32.377Z,89.01
2017-12-17T03:23:12.931Z,88.73
2017-12-17T03:23:53.496Z,88.25
2017-12-17T03:24:34.084Z,88.25
2017-12-17T03:25:14.664Z,88.16
2017-12-17T03:25:55.237Z,88.54
2017-12-17T03:26:35.812Z,88.06
2017-12-17T03:27:16.375Z,87.59
2017-12-17T03:27:56.960Z,87.59
2017-12-17T03:28:37.557Z,87.97
2017-12-17T03:29:18.124Z,87.97
2017-12-17T03:29:58.682Z,88.06
2017-12-17T03:30:39.266Z,88.44
2017-12-17T03:31:19.849Z,88.54
2017-12-17T03:32:00.425Z,89.01
2017-12-17T03:32:40.980Z,88.92
2017-12-17T03:33:21.548Z,88.92
2017-12-17T03:34:02.124Z,88.35
2017-12-17T03:34:42.709Z,89.11
2017-12-17T03:35:23.281Z,88.92
2017-12-17T03:36:03.880Z,89.01
2017-12-17T03:36:44.464Z,89.01
2017-12-17T03:37:25.032Z,89.29
2017-12-17T03:38:05.607Z,89.01
2017-12-17T03:38:46.182Z,89.2
2017-12-17T03:39:26.748Z,89.48
2017-12-17T03:40:07.325Z,89.48
2017-12-17T03:40:47.907Z,89.58
2017-12-17T03:41:28.484Z,89.48
2017-12-17T03:42:09.052Z,89.77
2017-12-17T03:42:49.634Z,89.67
2017-12-17T03:43:30.191Z,89.67
2017-12-17T03:44:10.759Z,89.67
2017-12-17T03:44:51.338Z,89.39
2017-12-17T03:45:31.923Z,89.58
2017-12-17T03:46:12.481Z,90.15
2017-12-17T03:46:53.059Z,90.05
2017-12-17T03:47:33.620Z,89.96
2017-12-17T03:48:14.192Z,90.24
2017-12-17T03:48:54.772Z,90.15
2017-12-17T03:49:37.236Z,89.77
2017-12-17T03:50:17.818Z,89.96
2017-12-17T03:50:58.387Z,90.43
2017-12-17T03:51:38.952Z,90.24
2017-12-17T03:52:19.538Z,90.24
2017-12-17T03:53:00.126Z,90.24
2017-12-17T03:53:40.689Z,90.43
2017-12-17T03:54:21.287Z,90.43
2017-12-17T03:55:01.844Z,90.43
2017-12-17T03:55:42.408Z,90.24
2017-12-17T03:56:22.991Z,90.15
2017-12-17T03:57:03.554Z,90.24
2017-12-17T03:57:44.136Z,90.53
2017-12-17T03:58:24.709Z,90.43
2017-12-17T03:59:05.293Z,90.91
2017-12-17T03:59:45.860Z,90.43
2017-12-17T04:00:26.445Z,90.53
2017-12-17T04:01:06.998Z,90.62
2017-12-17T04:01:47.568Z,90.53
2017-12-17T04:02:28.141Z,90.53
2017-12-17T04:03:08.712Z,90.34
2017-12-17T04:03:49.283Z,90.53
2017-12-17T04:04:29.862Z,90.24
2017-12-17T04:05:10.414Z,90.05
2017-12-17T04:05:50.991Z,90.81
2017-12-17T04:06:31.594Z,90.43
2017-12-17T04:07:12.178Z,90.43
2017-12-17T04:07:52.757Z,90.91
2017-12-17T04:08:33.317Z,90.81
2017-12-17T04:09:13.929Z,90.34
2017-12-17T04:09:54.444Z,90.24
2017-12-17T04:10:35.016Z,90.24
2017-12-17T04:11:15.604Z,90.15
2017-12-17T04:11:56.159Z,90.24
2017-12-17T04:12:36.730Z,90.05
2017-12-17T04:13:17.311Z,90.24
2017-12-17T04:13:57.882Z,90.15
2017-12-17T04:14:38.445Z,90.24
2017-12-17T04:15:19.013Z,89.96
2017-12-17T04:15:59.580Z,90.15
2017-12-17T04:16:40.165Z,90.15
2017-12-17T04:17:20.741Z,90.43
2017-12-17T04:18:01.300Z,90.72
2017-12-17T04:18:41.869Z,90.81
2017-12-17T04:19:22.437Z,90.91
2017-12-17T04:20:03.014Z,90.72
2017-12-17T04:20:43.602Z,90.72
2017-12-17T04:21:24.188Z,90.62
2017-12-17T04:22:04.739Z,90.91
2017-12-17T04:22:45.318Z,90.81
2017-12-17T04:23:25.886Z,90.43
2017-12-17T04:24:06.457Z,90.43
2017-12-17T04:24:47.054Z,90.05
2017-12-17T04:25:27.668Z,89.96
2017-12-17T04:26:08.262Z,89.96
2017-12-17T04:26:48.835Z,90.15
2017-12-17T04:27:29.400Z,89.96
2017-12-17T04:28:09.976Z,89.48
2017-12-17T04:28:50.558Z,88.82
2017-12-17T04:29:31.138Z,88.92
2017-12-17T04:30:11.736Z,88.92
2017-12-17T04:30:52.337Z,88.25
2017-12-17T04:31:32.920Z,88.44
2017-12-17T04:32:13.513Z,88.44
2017-12-17T04:32:54.080Z,88.54
2017-12-17T04:33:34.647Z,87.97
2017-12-17T04:34:15.204Z,87.4
2017-12-17T04:34:55.788Z,87.3
2017-12-17T04:35:36.355Z,87.02
2017-12-17T04:36:16.960Z,87.4
2017-12-17T04:36:57.526Z,87.12
2017-12-17T04:37:38.093Z,87.12
2017-12-17T04:38:18.659Z,87.02
2017-12-17T04:38:59.239Z,87.49
2017-12-17T04:39:39.829Z,87.77
2017-12-17T04:40:20.399Z,88.06
2017-12-17T04:41:00.958Z,87.97
2017-12-17T04:41:41.534Z,87.59
2017-12-17T04:42:22.109Z,88.16
2017-12-17T04:43:02.713Z,87.97
2017-12-17T04:43:43.292Z,87.68
2017-12-17T04:44:23.861Z,87.73
2017-12-17T04:45:04.432Z,87.68
2017-12-17T04:45:45.029Z,88.16
2017-12-17T04:46:25.587Z,88.02
2017-12-17T04:47:06.165Z,87.64
2017-12-17T04:47:46.748Z,87.54
2017-12-17T04:48:27.333Z,87.64
2017-12-17T04:49:07.887Z,88.02
2017-12-17T04:49:48.475Z,88.16
2017-12-17T04:50:29.061Z,88.3
2017-12-17T04:51:09.638Z,88.21
2017-12-17T04:51:50.231Z,88.21
2017-12-17T04:52:30.818Z,88.02
2017-12-17T04:53:11.398Z,88.21
2017-12-17T04:53:51.987Z,88.3
2017-12-17T04:56:04.886Z,87.83
2017-12-17T04:56:45.453Z,88.02
2017-12-17T04:57:26.018Z,88.3
2017-12-17T04:58:06.586Z,88.4
2017-12-17T04:58:47.153Z,88.21
2017-12-17T04:59:27.758Z,88.78
2017-12-17T05:00:08.317Z,88.49
2017-12-17T05:00:48.877Z,88.59
2017-12-17T05:01:29.472Z,88.49
2017-12-17T05:02:10.064Z,89.25
2017-12-17T05:02:50.623Z,89.06
2017-12-17T05:03:31.230Z,89.25
2017-12-17T05:04:11.792Z,89.15
2017-12-17T05:04:52.397Z,88.96
2017-12-17T05:05:32.980Z,88.87
2017-12-17T05:06:14.524Z,88.87
2017-12-17T05:06:55.119Z,89.34
2017-12-17T05:07:35.689Z,88.87
2017-12-17T05:08:16.243Z,89.44
2017-12-17T05:08:57.383Z,89.25
2017-12-17T05:09:37.953Z,89.82
2017-12-17T05:10:18.518Z,89.53
2017-12-17T05:10:59.122Z,88.96
2017-12-17T05:11:39.701Z,88.87
2017-12-17T05:12:20.307Z,88.96
2017-12-17T05:13:00.877Z,89.25
2017-12-17T05:13:41.543Z,88.68
2017-12-17T05:14:22.106Z,88.87
2017-12-17T05:15:02.708Z,88.78
2017-12-17T05:15:43.283Z,88.49
2017-12-17T05:16:23.836Z,89.15
2017-12-17T05:17:04.408Z,88.96
2017-12-17T05:17:45.016Z,89.25
2017-12-17T05:18:25.613Z,89.15
2017-12-17T05:19:06.181Z,89.44
2017-12-17T05:19:46.787Z,89.63
2017-12-17T05:20:27.367Z,89.63
2017-12-17T05:21:07.946Z,89.44
2017-12-17T05:21:48.545Z,89.53
2017-12-17T05:22:29.131Z,89.72
2017-12-17T05:23:09.676Z,88.96
2017-12-17T05:23:50.296Z,88.78
2017-12-17T05:24:30.854Z,88.96
2017-12-17T05:25:11.424Z,88.96
2017-12-17T05:25:52.024Z,89.34
2017-12-17T05:26:32.610Z,89.72
2017-12-17T05:27:13.347Z,89.63
2017-12-17T05:27:53.954Z,90.2
2017-12-17T05:28:34.520Z,90.01
2017-12-17T05:29:15.079Z,90.01
2017-12-17T05:29:55.698Z,89.72
2017-12-17T05:30:36.307Z,89.91
2017-12-17T05:31:16.873Z,90.1
2017-12-17T05:31:57.469Z,89.82
2017-12-17T05:32:38.064Z,90.39
2017-12-17T05:33:18.743Z,90.01
2017-12-17T05:34:00.135Z,90.1
2017-12-17T05:34:41.006Z,89.91
2017-12-17T05:35:21.901Z,89.72
2017-12-17T05:36:02.495Z,89.82
2017-12-17T05:36:43.068Z,89.91
2017-12-17T05:37:24.054Z,90.1
2017-12-17T05:38:05.682Z,89.82
2017-12-17T05:38:46.509Z,89.91
2017-12-17T05:39:27.071Z,89.82
2017-12-17T05:40:07.645Z,90.1
2017-12-17T05:40:48.228Z,89.91
2017-12-17T05:41:28.784Z,90.2
2017-12-17T05:42:09.356Z,89.34
2017-12-17T05:42:49.954Z,89.34
2017-12-17T05:43:30.510Z,89.91
2017-12-17T05:44:11.101Z,89.91
2017-12-17T05:44:51.694Z,89.82
2017-12-17T05:45:32.704Z,89.63
2017-12-17T05:46:13.275Z,90.1
2017-12-17T05:46:53.859Z,89.63
2017-12-17T05:47:34.424Z,89.44
2017-12-17T05:48:15.031Z,89.25
2017-12-17T05:48:55.603Z,89.53
2017-12-17T05:49:36.168Z,89.34
2017-12-17T05:50:16.730Z,89.53
2017-12-17T05:50:57.334Z,89.34
2017-12-17T05:51:37.918Z,89.34
2017-12-17T05:52:18.485Z,88.78
2017-12-17T05:52:59.078Z,88.87
2017-12-17T05:53:39.659Z,89.06
2017-12-17T05:54:20.245Z,89.06
2017-12-17T05:55:00.845Z,89.06
2017-12-17T05:55:41.507Z,89.01
2017-12-17T05:56:22.099Z,89.15
2017-12-17T05:57:02.721Z,89.15
2017-12-17T05:57:43.310Z,89.15
2017-12-17T05:58:23.931Z,89.15
2017-12-17T05:59:04.507Z,89.15
2017-12-17T05:59:45.162Z,88.78
2017-12-17T06:00:25.770Z,88.96
2017-12-17T06:01:06.357Z,89.06
2017-12-17T06:01:47.045Z,88.59
2017-12-17T06:02:27.645Z,88.59
2017-12-17T06:03:08.264Z,89.01
2017-12-17T06:03:48.869Z,89.06
2017-12-17T06:04:29.425Z,89.25
2017-12-17T06:05:10.004Z,88.59
2017-12-17T06:05:50.570Z,88.4
2017-12-17T06:06:31.136Z,88.59
2017-12-17T06:07:11.704Z,88.73
2017-12-17T06:07:52.280Z,88.68
2017-12-17T06:08:32.867Z,88.63
2017-12-17T06:09:13.428Z,88.49
2017-12-17T06:09:54.109Z,88.73
2017-12-17T06:10:35.200Z,89.29
2017-12-17T06:11:16.018Z,89.11
2017-12-17T06:11:56.716Z,88.82
2017-12-17T06:12:37.455Z,89.11
2017-12-17T06:13:18.112Z,88.92
2017-12-17T06:13:58.859Z,89.29
2017-12-17T06:14:39.432Z,89.29
2017-12-17T06:15:19.986Z,89.01
2017-12-17T06:16:00.568Z,89.29
2017-12-17T06:16:41.142Z,88.59
2017-12-17T06:17:21.703Z,88.96
2017-12-17T06:18:02.318Z,89.01
2017-12-17T06:18:43.117Z,89.06
2017-12-17T06:19:23.934Z,89.29
2017-12-17T06:20:04.973Z,89.29
2017-12-17T06:20:46.125Z,89.06
2017-12-17T06:21:26.854Z,88.87
2017-12-17T06:22:07.448Z,89.15
2017-12-17T06:22:48.049Z,89.01
2017-12-17T06:23:28.795Z,89.2
2017-12-17T06:24:09.499Z,88.92
2017-12-17T06:24:50.458Z,89.11
2017-12-17T06:25:31.689Z,89.48
2017-12-17T06:26:12.262Z,89.39
2017-12-17T06:26:53.092Z,89.39
2017-12-17T06:27:33.650Z,89.39
2017-12-17T06:28:14.234Z,89.39
2017-12-17T06:28:55.185Z,89.58
2017-12-17T06:29:36.008Z,89.29
2017-12-17T06:30:16.733Z,89.39
2017-12-17T06:30:57.686Z,89.01
2017-12-17T06:31:38.759Z,89.2
2017-12-17T06:32:19.442Z,89.2
2017-12-17T06:33:00.295Z,89.2
2017-12-17T06:33:41.136Z,89.11
2017-12-17T06:34:21.719Z,89.01
2017-12-17T06:35:02.402Z,89.77
2017-12-17T06:35:43.724Z,89.48
2017-12-17T06:36:24.470Z,89.48
2017-12-17T06:37:05.091Z,88.73
2017-12-17T06:37:45.694Z,89.11
2017-12-17T06:38:26.355Z,88.92
2017-12-17T06:39:07.012Z,89.11
2017-12-17T06:39:47.867Z,89.01
2017-12-17T06:40:28.566Z,89.01
2017-12-17T06:41:09.178Z,89.39
2017-12-17T06:41:49.758Z,89.2
2017-12-17T06:42:30.706Z,88.92
2017-12-17T06:43:11.850Z,89.29
2017-12-17T06:43:52.771Z,89.11
2017-12-17T06:44:34.100Z,89.01
2017-12-17T06:45:15.070Z,89.01
2017-12-17T06:45:56.050Z,88.82
2017-12-17T06:46:36.841Z,89.01
2017-12-17T06:47:18.422Z,89.11
2017-12-17T06:47:59.208Z,89.2
2017-12-17T06:48:40.367Z,88.82
2017-12-17T06:49:21.494Z,89.01
2017-12-17T06:50:02.280Z,89.11
2017-12-17T06:50:43.047Z,89.11
2017-12-17T06:51:23.913Z,88.54
2017-12-17T06:52:04.672Z,88.44
2017-12-17T06:52:46.161Z,88.63
2017-12-17T06:53:27.275Z,88.82
2017-12-17T06:54:08.208Z,88.54
2017-12-17T06:54:49.321Z,88.25
2017-12-17T06:55:30.234Z,88.35
2017-12-17T06:56:11.052Z,88.44
2017-12-17T06:56:51.670Z,87.97
2017-12-17T06:57:32.526Z,87.87
2017-12-17T06:58:13.327Z,87.87
2017-12-17T06:58:54.202Z,88.06
2017-12-17T06:59:35.012Z,87.87
2017-12-17T07:00:15.855Z,87.59
2017-12-17T07:00:56.714Z,87.77
2017-12-17T07:01:37.484Z,87.68
2017-12-17T07:02:18.327Z,87.97
2017-12-17T07:02:58.914Z,87.77
2017-12-17T07:03:39.529Z,88.06
2017-12-17T07:04:20.111Z,87.97
2017-12-17T07:05:00.680Z,88.06
2017-12-17T07:05:41.254Z,88.16
2017-12-17T07:06:21.833Z,88.06
2017-12-17T07:07:02.408Z,88.06
2017-12-17T07:07:43.240Z,87.49
2017-12-17T07:08:24.025Z,87.4
2017-12-17T07:09:04.973Z,87.49
2017-12-17T07:09:45.682Z,87.68
2017-12-17T07:10:26.508Z,87.59
2017-12-17T07:11:07.300Z,87.02
2017-12-17T07:11:48.053Z,87.12
2017-12-17T07:12:29.066Z,87.4
2017-12-17T07:13:10.097Z,87.02
2017-12-17T07:13:50.948Z,87.12
2017-12-17T07:14:31.774Z,86.83
2017-12-17T07:15:12.690Z,87.02
2017-12-17T07:15:53.472Z,86.93
2017-12-17T07:16:34.389Z,87.12
2017-12-17T07:17:15.276Z,87.02
2017-12-17T07:17:56.189Z,87.12
2017-12-17T07:18:36.939Z,86.93
2017-12-17T07:19:17.719Z,87.02
2017-12-17T07:19:59.446Z,87.21
2017-12-17T07:20:40.093Z,87.02
2017-12-17T07:21:20.862Z,86.93
2017-12-17T07:22:01.648Z,86.83
2017-12-17T07:22:42.302Z,86.93
2017-12-17T07:23:23.182Z,86.83
2017-12-17T07:24:03.774Z,86.93
2017-12-17T07:24:44.354Z,86.93
2017-12-17T07:25:24.968Z,86.93
2017-12-17T07:26:05.554Z,87.02
2017-12-17T07:26:46.182Z,86.93
2017-12-17T07:27:26.759Z,86.83
2017-12-17T07:28:07.356Z,86.64
2017-12-17T07:28:47.947Z,87.21
2017-12-17T07:29:28.514Z,87.21
2017-12-17T07:30:09.094Z,87.21
2017-12-17T07:30:49.683Z,87.12
2017-12-17T07:31:30.286Z,86.74
2017-12-17T07:32:10.940Z,87.12
2017-12-17T07:32:51.502Z,87.02
2017-12-17T07:33:32.105Z,87.49
2017-12-17T07:34:12.686Z,87.4
2017-12-17T07:34:53.263Z,87.49
2017-12-17T07:35:33.831Z,87.59
2017-12-17T07:36:14.403Z,87.59
2017-12-17T07:36:54.995Z,87.49
2017-12-17T07:37:35.556Z,87.4
2017-12-17T07:38:16.980Z,87.59
2017-12-17T07:38:57.556Z,87.4
2017-12-17T07:39:38.134Z,87.59
2017-12-17T07:40:18.729Z,87.4
2017-12-17T07:40:59.288Z,87.21
2017-12-17T07:41:39.857Z,87.4
2017-12-17T07:42:20.403Z,87.12
2017-12-17T07:43:00.979Z,86.93
2017-12-17T07:43:41.537Z,87.12
2017-12-17T07:44:22.126Z,86.93
2017-12-17T07:45:02.696Z,87.02
2017-12-17T07:45:43.293Z,86.64
2017-12-17T07:46:23.859Z,87.02
2017-12-17T07:47:04.445Z,86.93
2017-12-17T07:47:45.007Z,87.21
2017-12-17T07:48:25.586Z,86.74
2017-12-17T07:49:06.150Z,86.83
2017-12-17T07:49:46.730Z,86.74
2017-12-17T07:50:27.289Z,86.26
2017-12-17T07:51:07.848Z,86.35
2017-12-17T07:51:48.455Z,86.16
2017-12-17T07:52:29.062Z,86.26
2017-12-17T07:53:09.681Z,86.16
2017-12-17T07:53:50.278Z,86.45
2017-12-17T07:54:30.880Z,86.55
2017-12-17T07:55:11.449Z,86.45
2017-12-17T07:55:52.079Z,86.26
2017-12-17T07:56:32.663Z,86.35
2017-12-17T07:57:13.230Z,86.26
2017-12-17T07:57:53.811Z,86.16
2017-12-17T07:58:34.373Z,86.35
2017-12-17T07:59:14.950Z,86.16
2017-12-17T07:59:55.525Z,86.16
2017-12-17T08:00:36.499Z,86.35
2017-12-17T08:01:17.081Z,85.97
2017-12-17T08:01:57.660Z,86.64
2017-12-17T08:02:38.277Z,86.26
2017-12-17T08:03:18.876Z,86.26
2017-12-17T08:03:59.455Z,86.74
2017-12-17T08:04:40.063Z,86.74
2017-12-17T08:05:20.677Z,86.83
2017-12-17T08:06:01.241Z,85.97
2017-12-17T08:06:41.879Z,86.26
2017-12-17T08:07:22.467Z,86.35
2017-12-17T08:08:03.080Z,86.22
2017-12-17T08:08:43.695Z,86.41
2017-12-17T08:09:24.281Z,86.6
2017-12-17T08:10:04.889Z,86.69
2017-12-17T08:10:46.059Z,87.16
2017-12-17T08:11:26.405Z,86.83
2017-12-17T08:12:07.043Z,86.98
2017-12-17T08:12:47.592Z,87.07
2017-12-17T08:13:28.408Z,86.98
2017-12-17T08:14:08.967Z,87.02
2017-12-17T08:14:49.559Z,86.98
2017-12-17T08:15:30.217Z,86.93
2017-12-17T08:16:10.813Z,87.54
2017-12-17T08:16:51.417Z,87.59
2017-12-17T08:17:31.981Z,87.26
2017-12-17T08:18:12.653Z,87.35
2017-12-17T08:18:53.191Z,87.07
2017-12-17T08:19:33.840Z,87.45
2017-12-17T08:20:14.466Z,87.35
2017-12-17T08:20:55.060Z,87.35
2017-12-17T08:21:35.681Z,87.12
2017-12-17T08:22:16.263Z,87.16
2017-12-17T08:22:57.042Z,87.64
2017-12-17T08:23:37.615Z,87.45
2017-12-17T08:24:18.212Z,86.98
2017-12-17T08:24:58.821Z,87.26
2017-12-17T08:25:39.443Z,87.4
2017-12-17T08:26:20.064Z,87.73
2017-12-17T08:27:00.653Z,87.92
2017-12-17T08:27:41.255Z,87.45
2017-12-17T08:28:21.894Z,87.64
2017-12-17T08:29:02.511Z,87.73
2017-12-17T08:29:43.145Z,87.87
2017-12-17T08:30:23.770Z,87.77
2017-12-17T08:31:04.416Z,87.54
2017-12-17T08:31:45.031Z,87.35
2017-12-17T08:32:25.598Z,87.35
2017-12-17T08:33:06.283Z,87.35
2017-12-17T08:33:46.858Z,87.26
2017-12-17T08:34:27.448Z,86.69
2017-12-17T08:35:08.047Z,86.6
2017-12-17T08:35:48.680Z,86.6
2017-12-17T08:36:29.273Z,86.74
2017-12-17T08:37:09.887Z,86.79
2017-12-17T08:37:50.464Z,86.69
2017-12-17T08:38:31.042Z,86.98
2017-12-17T08:39:11.638Z,86.98
2017-12-17T08:39:52.250Z,86.79
2017-12-17T08:40:32.833Z,86.98
2017-12-17T08:41:13.404Z,86.88
2017-12-17T08:41:53.974Z,86.88
2017-12-17T08:42:34.585Z,86.98
2017-12-17T08:43:15.257Z,87.35
2017-12-17T08:43:55.869Z,87.21
2017-12-17T08:44:36.487Z,87.35
2017-12-17T08:45:17.083Z,87.35
2017-12-17T08:45:57.681Z,87.35